Carrier Princess — CZ3582 — position and weather

sailwx.info

Track history (hours):
 
Tides and Currents Weather Stations Pressure Air Temp Water Temp Dewpoint Dewpoint Depression Visibility Wind Speed Wind Dir Waves Ship Positions

Carrier Princess

Last reported at 2018-Feb-21 23:00 UTC. Time now 2018-Feb-21 23:29 UTC.
Position N 49°09' W 123°02'.

Length 112 m; draft 3 m.

Type: Cargo ship. MMSI: 316003656.

Date/timePositionNaut miles runAvg speedWind from/ knotsBaromVisibWave heightAir tempDewpointWater temp
2018-Feb-21 23:00N 49°09' W 123°02'0 0.0
2018-Feb-21 22:30N 49°09' W 123°02'0 0.0
2018-Feb-21 22:00N 49°09' W 123°02'0 0.0
2018-Feb-21 21:30N 49°09' W 123°02'0 0.0
2018-Feb-21 21:00N 49°09' W 123°02'0 0.0
2018-Feb-21 20:30N 49°09' W 123°02'0 0.0
2018-Feb-21 20:00N 49°09' W 123°02'0 0.0
2018-Feb-21 19:30N 49°09' W 123°02'0 0.0
2018-Feb-21 18:59N 49°09' W 123°02'0 0.0
2018-Feb-21 18:30N 49°09' W 123°02'0 0.0
2018-Feb-21 18:00N 49°09' W 123°02'0 0.1
2018-Feb-21 17:30N 49°09' W 123°02'0 0.1
2018-Feb-21 17:00N 49°09' W 123°02'1 1.2
2018-Feb-21 16:30N 49°08' W 123°03'510.0
2018-Feb-21 16:00N 49°07' W 123°10'4 8.1
2018-Feb-21 15:29N 49°07' W 123°17'4 7.7
2018-Feb-21 14:55N 49°03' W 123°19'4 9.3
2018-Feb-21 14:29N 48°59' W 123°19'5 9.4
2018-Feb-21 13:59N 48°54' W 123°18'5 9.7
2018-Feb-21 13:29N 48°50' W 123°20'613.6
2018-Feb-21 13:01N 48°44' W 123°24'2 4.5
2018-Feb-21 12:30N 48°41' W 123°24'0 0.0
2018-Feb-21 12:00N 48°41' W 123°24'0 0.0
2018-Feb-21 11:30N 48°41' W 123°24'0 0.0
2018-Feb-21 10:58N 48°41' W 123°24'2 4.4
2018-Feb-21 10:30N 48°42' W 123°22'510.8
2018-Feb-21 10:00N 48°48' W 123°21'4 8.1
2018-Feb-21 09:30N 48°51' W 123°19'510.2
2018-Feb-21 08:58N 48°57' W 123°18'510.6
2018-Feb-21 08:30N 49°02' W 123°19'611.0
2018-Feb-21 08:00N 49°07' W 123°16'611.7
2018-Feb-21 07:30N 49°07' W 123°07'4 7.9
2018-Feb-21 07:00N 49°09' W 123°02'0 0.0
2018-Feb-21 06:30N 49°09' W 123°02'0 0.2
2018-Feb-21 06:00N 49°09' W 123°02'0 0.0
2018-Feb-21 05:30N 49°09' W 123°02'0 0.0
2018-Feb-21 05:00N 49°09' W 123°02'0 0.0
2018-Feb-21 04:30N 49°09' W 123°02'0 0.0
2018-Feb-21 04:00N 49°09' W 123°02'0 0.0
2018-Feb-21 03:30N 49°09' W 123°02'0 0.0
2018-Feb-21 03:00N 49°09' W 123°02'0 0.0
2018-Feb-21 02:30N 49°09' W 123°02'0 0.0
2018-Feb-21 01:59N 49°09' W 123°02'0 0.0
2018-Feb-21 01:30N 49°09' W 123°02'0 0.0
2018-Feb-21 01:00N 49°09' W 123°02'0 0.0
2018-Feb-21 00:30N 49°09' W 123°02'0 0.0
2018-Feb-21 00:00N 49°09' W 123°02'0 0.0
2018-Feb-20 23:29N 49°09' W 123°02'0 0.0
2018-Feb-20 23:00N 49°09' W 123°02'0 0.0
2018-Feb-20 22:30N 49°09' W 123°02'0 0.0
2018-Feb-20 22:00N 49°09' W 123°02'0 0.0
2018-Feb-20 21:30N 49°09' W 123°02'0 0.0
2018-Feb-20 21:00N 49°09' W 123°02'0 0.0
2018-Feb-20 20:29N 49°09' W 123°02'0 0.0
2018-Feb-20 20:00N 49°09' W 123°02'0 0.0
2018-Feb-20 19:30N 49°09' W 123°02'0 0.0
2018-Feb-20 19:00N 49°09' W 123°02'0 0.0
2018-Feb-20 18:30N 49°09' W 123°02'0 0.0
2018-Feb-20 18:00N 49°09' W 123°02'0 0.0
2018-Feb-20 17:30N 49°09' W 123°02'0 0.0
2018-Feb-20 17:00N 49°09' W 123°02'0 0.0
2018-Feb-20 16:30N 49°09' W 123°02'3 6.4
2018-Feb-20 15:59N 49°07' W 123°06'5 9.3
2018-Feb-20 15:30N 49°08' W 123°13'4 8.6
2018-Feb-20 15:00N 49°06' W 123°19'611.7
2018-Feb-20 14:30N 48°60' W 123°18'510.9
2018-Feb-20 14:00N 48°54' W 123°18'510.2
2018-Feb-20 13:30N 48°50' W 123°21'612.5
2018-Feb-20 13:00N 48°44' W 123°24'3 5.2
2018-Feb-20 12:30N 48°41' W 123°24'0 0.0
2018-Feb-20 12:00N 48°41' W 123°24'0 0.0
2018-Feb-20 11:30N 48°41' W 123°24'0 0.0
2018-Feb-20 11:00N 48°41' W 123°24'3 5.4
2018-Feb-20 10:30N 48°43' W 123°21'612.4
2018-Feb-20 10:00N 48°49' W 123°21'5 9.0
2018-Feb-20 09:26N 48°54' W 123°18'511.5
2018-Feb-20 09:00N 48°59' W 123°19'611.4
2018-Feb-20 08:29N 49°05' W 123°20'611.8
2018-Feb-20 07:59N 49°07' W 123°11'612.6
2018-Feb-20 07:30N 49°09' W 123°02'0 0.5
2018-Feb-20 07:00N 49°09' W 123°02'0 0.0
2018-Feb-20 06:30N 49°09' W 123°02'0 0.2
2018-Feb-20 06:00N 49°09' W 123°02'0 0.1
2018-Feb-20 05:29N 49°09' W 123°02'0 0.0
2018-Feb-20 05:00N 49°09' W 123°02'0 0.0
2018-Feb-20 04:30N 49°09' W 123°02'0 0.0
2018-Feb-20 04:00N 49°09' W 123°02'0 0.0
2018-Feb-20 03:30N 49°09' W 123°02'0 0.0
2018-Feb-20 03:00N 49°09' W 123°02'0 0.0
2018-Feb-20 02:30N 49°09' W 123°02'0 0.0
2018-Feb-20 02:00N 49°09' W 123°02'0 0.0
2018-Feb-20 01:30N 49°09' W 123°02'0 0.0
2018-Feb-20 01:00N 49°09' W 123°02'0 0.0
2018-Feb-20 00:30N 49°09' W 123°02'0 0.0
2018-Feb-19 23:59N 49°09' W 123°02'0 0.0
2018-Feb-19 23:30N 49°09' W 123°02'0 0.0
2018-Feb-19 23:00N 49°09' W 123°02'0 0.0
2018-Feb-19 22:30N 49°09' W 123°02'0 0.0
2018-Feb-19 22:00N 49°09' W 123°02'0 0.0
2018-Feb-19 21:30N 49°09' W 123°02'0 0.0
2018-Feb-19 21:00N 49°09' W 123°02'0 0.0
2018-Feb-19 20:30N 49°09' W 123°02'0 0.0
2018-Feb-19 20:00N 49°09' W 123°02'0 0.0
2018-Feb-19 19:30N 49°09' W 123°02'0 0.0
2018-Feb-19 19:00N 49°09' W 123°02'0 0.0
2018-Feb-19 18:30N 49°09' W 123°02'0 0.0
2018-Feb-19 18:00N 49°09' W 123°02'0 0.0
2018-Feb-19 17:30N 49°09' W 123°02'0 0.0
2018-Feb-19 17:00N 49°09' W 123°02'0 0.0
2018-Feb-19 16:30N 49°09' W 123°02'0 0.0
2018-Feb-19 16:00N 49°09' W 123°02'0 0.0
2018-Feb-19 15:30N 49°09' W 123°02'0 0.0
2018-Feb-19 15:00N 49°09' W 123°02'0 0.0
2018-Feb-19 14:30N 49°09' W 123°02'0 0.0
2018-Feb-19 14:00N 49°09' W 123°02'0 0.0
2018-Feb-19 13:30N 49°09' W 123°02'0 0.0
2018-Feb-19 13:00N 49°09' W 123°02'0 0.0
2018-Feb-19 12:30N 49°09' W 123°02'0 0.0
2018-Feb-19 12:00N 49°09' W 123°02'0 0.0
2018-Feb-19 11:26N 49°09' W 123°02'0 0.0
2018-Feb-19 11:00N 49°09' W 123°02'0 0.0
2018-Feb-19 10:30N 49°09' W 123°02'0 0.0
2018-Feb-19 10:00N 49°09' W 123°02'0 0.0
2018-Feb-19 09:30N 49°09' W 123°02'0 0.0
2018-Feb-19 09:00N 49°09' W 123°02'0 0.0
2018-Feb-19 08:30N 49°09' W 123°02'0 0.0
2018-Feb-19 08:00N 49°09' W 123°02'0 0.0
2018-Feb-19 07:30N 49°09' W 123°02'0 0.0
2018-Feb-19 07:00N 49°09' W 123°02'0 0.0
2018-Feb-19 06:29N 49°09' W 123°02'0 0.0
2018-Feb-19 06:00N 49°09' W 123°02'0 0.0
2018-Feb-19 05:30N 49°09' W 123°02'0 0.0
2018-Feb-19 05:00N 49°09' W 123°02'0 0.0
2018-Feb-19 04:30N 49°09' W 123°02'0 0.0
2018-Feb-19 04:00N 49°09' W 123°02'0 0.0
2018-Feb-19 03:30N 49°09' W 123°02'0 0.0
2018-Feb-19 03:00N 49°09' W 123°02'0 0.0
2018-Feb-19 02:30N 49°09' W 123°02'0 0.0
2018-Feb-19 02:00N 49°09' W 123°02'0 0.0
2018-Feb-19 01:30N 49°09' W 123°02'0 0.0
2018-Feb-19 01:00N 49°09' W 123°02'0 0.0
2018-Feb-19 00:30N 49°09' W 123°02'0 0.0
2018-Feb-19 00:00N 49°09' W 123°02'0 0.0
2018-Feb-18 23:30N 49°09' W 123°02'0 0.0
2018-Feb-18 23:00N 49°09' W 123°02'0 0.0
2018-Feb-18 22:30N 49°09' W 123°02'0 0.0
2018-Feb-18 22:00N 49°09' W 123°02'0 0.0
2018-Feb-18 21:30N 49°09' W 123°02'0 0.0
2018-Feb-18 21:00N 49°09' W 123°02'0 0.0
2018-Feb-18 20:30N 49°09' W 123°02'0 0.0
2018-Feb-18 20:00N 49°09' W 123°02'0 0.0
2018-Feb-18 19:30N 49°09' W 123°02'0 0.0
2018-Feb-18 19:00N 49°09' W 123°02'0 0.0
2018-Feb-18 18:30N 49°09' W 123°02'0 0.0
2018-Feb-18 18:00N 49°09' W 123°02'0 0.0
2018-Feb-18 17:30N 49°09' W 123°02'0 0.0
2018-Feb-18 17:00N 49°09' W 123°02'0 0.0
2018-Feb-18 16:30N 49°09' W 123°02'0 0.0
2018-Feb-18 16:00N 49°09' W 123°02'0 0.0
2018-Feb-18 15:29N 49°09' W 123°02'0 0.0
2018-Feb-18 15:00N 49°09' W 123°02'0 0.0
2018-Feb-18 14:30N 49°09' W 123°02'0 0.0
2018-Feb-18 14:00N 49°09' W 123°02'0 0.0
2018-Feb-18 13:30N 49°09' W 123°02'0 0.0
2018-Feb-18 13:00N 49°09' W 123°02'0 0.0
2018-Feb-18 12:30N 49°09' W 123°02'0 0.0
2018-Feb-18 12:00N 49°09' W 123°02'0 0.0
2018-Feb-18 11:30N 49°09' W 123°02'0 0.0
2018-Feb-18 11:00N 49°09' W 123°02'0 0.0
2018-Feb-18 10:30N 49°09' W 123°02'0 0.0
2018-Feb-18 10:00N 49°09' W 123°02'0 0.0
2018-Feb-18 09:30N 49°09' W 123°02'0 0.0
2018-Feb-18 09:00N 49°09' W 123°02'0 0.0
2018-Feb-18 08:30N 49°09' W 123°02'0 0.0
2018-Feb-18 07:59N 49°09' W 123°02'0 0.0
2018-Feb-18 07:30N 49°09' W 123°02'0 0.0
2018-Feb-18 07:00N 49°09' W 123°02'0 0.0
2018-Feb-18 06:30N 49°09' W 123°02'0 0.0
2018-Feb-18 06:00N 49°09' W 123°02'0 0.0
2018-Feb-18 05:30N 49°09' W 123°02'0 0.0
2018-Feb-18 05:00N 49°09' W 123°02'0 0.0
2018-Feb-18 04:30N 49°09' W 123°02'0 0.0
2018-Feb-18 04:00N 49°09' W 123°02'0 0.0
2018-Feb-18 03:30N 49°09' W 123°02'0 0.0
2018-Feb-18 03:00N 49°09' W 123°02'0 0.0
2018-Feb-18 02:30N 49°09' W 123°02'0 0.0
2018-Feb-18 02:00N 49°09' W 123°02'0 0.0
2018-Feb-18 01:30N 49°09' W 123°02'0 0.0
2018-Feb-18 01:00N 49°09' W 123°02'0 0.0
2018-Feb-18 00:30N 49°09' W 123°02'0 0.0
2018-Feb-18 00:00N 49°09' W 123°02'0 0.0
2018-Feb-17 23:30N 49°09' W 123°02'0 0.0
2018-Feb-17 23:00N 49°09' W 123°02'0 0.0
2018-Feb-17 22:30N 49°09' W 123°02'0 0.0
2018-Feb-17 22:00N 49°09' W 123°02'0 0.0
2018-Feb-17 21:30N 49°09' W 123°02'0 0.0
2018-Feb-17 21:00N 49°09' W 123°02'0 0.0
2018-Feb-17 20:30N 49°09' W 123°02'0 0.0
2018-Feb-17 20:00N 49°09' W 123°02'0 0.0
2018-Feb-17 19:30N 49°09' W 123°02'0 0.0
2018-Feb-17 19:00N 49°09' W 123°02'0 0.0
2018-Feb-17 18:30N 49°09' W 123°02'0 0.0
2018-Feb-17 18:00N 49°09' W 123°02'0 0.0
2018-Feb-17 17:30N 49°09' W 123°02'0 0.2
2018-Feb-17 17:00N 49°09' W 123°02'2 3.3
2018-Feb-17 16:30N 49°08' W 123°04'4 8.5
2018-Feb-17 15:59N 49°07' W 123°10'4 8.0
2018-Feb-17 15:28N 49°07' W 123°17'4 7.9
2018-Feb-17 15:00N 49°04' W 123°20'5 9.3
2018-Feb-17 14:30N 48°59' W 123°19'6 9.8
2018-Feb-17 13:54N 48°53' W 123°18'3 9.1
2018-Feb-17 13:30N 48°50' W 123°21'713.6
2018-Feb-17 13:00N 48°43' W 123°24'2 4.5
2018-Feb-17 12:31N 48°41' W 123°24'0 0.0
2018-Feb-17 12:01N 48°41' W 123°24'0 0.1
2018-Feb-17 11:30N 48°41' W 123°24'0 0.1
2018-Feb-17 11:01N 48°41' W 123°24'2 4.3
2018-Feb-17 10:31N 48°42' W 123°22'5 9.7
2018-Feb-17 10:01N 48°47' W 123°21'5 8.8
2018-Feb-17 09:27N 48°52' W 123°19'510.8
2018-Feb-17 09:00N 48°57' W 123°18'5 9.9
2018-Feb-17 08:30N 49°02' W 123°19'510.4
2018-Feb-17 08:00N 49°07' W 123°17'814.9
2018-Feb-17 07:28N 49°07' W 123°05'2 5.0
2018-Feb-17 07:00N 49°09' W 123°02'0 0.0
2018-Feb-17 06:30N 49°09' W 123°02'0 0.0
2018-Feb-17 06:00N 49°09' W 123°02'0 0.0
2018-Feb-17 05:30N 49°09' W 123°02'0 0.0
2018-Feb-17 05:00N 49°09' W 123°02'0 0.0
2018-Feb-17 04:30N 49°09' W 123°02'3 6.2
2018-Feb-17 04:00N 49°07' W 123°06'611.6
2018-Feb-17 03:29N 49°08' W 123°15'511.2
2018-Feb-17 03:00N 49°03' W 123°20'712.9
2018-Feb-17 02:30N 48°57' W 123°18'510.0
2018-Feb-17 02:00N 48°52' W 123°20'611.4
2018-Feb-17 01:30N 48°46' W 123°22'510.3
2018-Feb-17 01:00N 48°41' W 123°24'0 0.0
2018-Feb-17 00:30N 48°41' W 123°24'0 0.0
2018-Feb-17 00:00N 48°41' W 123°24'0 0.0
2018-Feb-16 23:30N 48°41' W 123°24'0 0.0
2018-Feb-16 23:00N 48°41' W 123°24'0 0.0
2018-Feb-16 22:30N 48°41' W 123°24'2 4.5
2018-Feb-16 22:00N 48°42' W 123°21'611.6
2018-Feb-16 21:30N 48°48' W 123°21'610.8
2018-Feb-16 20:57N 48°54' W 123°18'511.3
2018-Feb-16 20:30N 48°59' W 123°18'612.1
2018-Feb-16 20:00N 49°05' W 123°19'611.8
2018-Feb-16 19:30N 49°07' W 123°11'611.7
2018-Feb-16 19:00N 49°09' W 123°02'0 0.1
2018-Feb-16 18:30N 49°09' W 123°02'0 0.0
2018-Feb-16 18:00N 49°09' W 123°02'0 0.0
2018-Feb-16 17:30N 49°09' W 123°02'0 0.0
2018-Feb-16 17:00N 49°09' W 123°02'1 2.5
2018-Feb-16 16:30N 49°08' W 123°04'4 8.4
2018-Feb-16 16:00N 49°07' W 123°10'4 8.0
2018-Feb-16 15:28N 49°07' W 123°16'4 8.5
2018-Feb-16 15:00N 49°03' W 123°19'5 9.6
2018-Feb-16 14:29N 48°58' W 123°17'5 9.3
2018-Feb-16 13:55N 48°53' W 123°18'4 8.8
2018-Feb-16 13:29N 48°50' W 123°21'714.1
2018-Feb-16 13:00N 48°43' W 123°24'2 4.2
2018-Feb-16 12:30N 48°41' W 123°24'0 0.0
2018-Feb-16 11:57N 48°41' W 123°24'0 0.0
2018-Feb-16 11:30N 48°41' W 123°24'0 0.0
2018-Feb-16 11:00N 48°41' W 123°24'3 6.6
2018-Feb-16 10:30N 48°44' W 123°21'713.1
2018-Feb-16 09:57N 48°51' W 123°21'610.3
2018-Feb-16 09:24N 48°56' W 123°18'514.0
2018-Feb-16 09:00N 49°02' W 123°19'611.6
2018-Feb-16 08:30N 49°07' W 123°16'714.2
2018-Feb-16 07:59N 49°07' W 123°05'2 4.7
2018-Feb-16 07:30N 49°09' W 123°02'0 0.0
2018-Feb-16 07:00N 49°09' W 123°02'0 0.0
2018-Feb-16 06:30N 49°09' W 123°02'0 0.2
2018-Feb-16 06:00N 49°09' W 123°02'0 0.0
2018-Feb-16 05:30N 49°09' W 123°02'0 0.0
2018-Feb-16 05:00N 49°09' W 123°02'0 0.0
2018-Feb-16 04:30N 49°09' W 123°02'0 0.0
2018-Feb-16 04:00N 49°09' W 123°02'0 0.0
2018-Feb-16 03:30N 49°09' W 123°02'0 0.0
2018-Feb-16 03:00N 49°09' W 123°02'0 0.0
2018-Feb-16 02:30N 49°09' W 123°02'0 0.0
2018-Feb-16 02:00N 49°09' W 123°02'0 0.0
2018-Feb-16 01:30N 49°09' W 123°02'0 0.0
2018-Feb-16 01:00N 49°09' W 123°02'0 0.0
2018-Feb-16 00:30N 49°09' W 123°02'0 0.0
2018-Feb-16 00:00N 49°09' W 123°02'0 0.0
2018-Feb-15 23:30N 49°09' W 123°02'0 0.0
2018-Feb-15 23:00N 49°09' W 123°02'0 0.0
2018-Feb-15 22:30N 49°09' W 123°02'0 0.0
2018-Feb-15 22:00N 49°09' W 123°02'0 0.0
2018-Feb-15 21:30N 49°09' W 123°02'0 0.0
2018-Feb-15 21:00N 49°09' W 123°02'0 0.0
2018-Feb-15 20:30N 49°09' W 123°02'0 0.0
2018-Feb-15 20:00N 49°09' W 123°02'0 0.0
2018-Feb-15 19:30N 49°09' W 123°02'0 0.0
2018-Feb-15 19:00N 49°09' W 123°02'0 0.0
2018-Feb-15 18:30N 49°09' W 123°02'0 0.0
2018-Feb-15 18:00N 49°09' W 123°02'0 0.0
2018-Feb-15 17:30N 49°09' W 123°02'0 0.0
2018-Feb-15 17:00N 49°09' W 123°02'0 0.6
2018-Feb-15 16:30N 49°09' W 123°03'4 8.6
2018-Feb-15 16:00N 49°06' W 123°08'5 9.2
2018-Feb-15 15:30N 49°07' W 123°15'510.5
2018-Feb-15 15:00N 49°03' W 123°19'5 9.8
2018-Feb-15 14:30N 48°58' W 123°19'5 9.9
2018-Feb-15 13:58N 48°53' W 123°18'4 8.6
2018-Feb-15 13:30N 48°49' W 123°20'612.4
2018-Feb-15 13:00N 48°43' W 123°24'2 4.1
2018-Feb-15 12:30N 48°41' W 123°24'0 0.0
2018-Feb-15 12:00N 48°41' W 123°24'0 0.0
2018-Feb-15 11:30N 48°41' W 123°24'0 0.0
2018-Feb-15 11:00N 48°41' W 123°24'3 5.3
2018-Feb-15 10:30N 48°43' W 123°21'612.5
2018-Feb-15 10:00N 48°49' W 123°21'5 9.1
2018-Feb-15 09:30N 48°53' W 123°18'5 9.6
2018-Feb-15 09:00N 48°58' W 123°18'612.1
2018-Feb-15 08:30N 49°04' W 123°19'611.4
2018-Feb-15 07:59N 49°07' W 123°11'510.4
2018-Feb-15 07:29N 49°08' W 123°04'1 2.5
2018-Feb-15 07:00N 49°09' W 123°02'0 0.0
2018-Feb-15 06:30N 49°09' W 123°02'0 0.2
2018-Feb-15 06:00N 49°09' W 123°02'0 0.0
2018-Feb-15 05:30N 49°09' W 123°02'0 0.0
2018-Feb-15 05:00N 49°09' W 123°02'0 0.0
2018-Feb-15 04:30N 49°09' W 123°02'0 0.0
2018-Feb-15 04:00N 49°09' W 123°02'0 0.0
2018-Feb-15 03:30N 49°09' W 123°02'0 0.0
2018-Feb-15 03:00N 49°09' W 123°02'0 0.0
2018-Feb-15 02:30N 49°09' W 123°02'0 0.0
2018-Feb-15 02:00N 49°09' W 123°02'0 0.0
2018-Feb-15 01:30N 49°09' W 123°02'0 0.0
2018-Feb-15 01:00N 49°09' W 123°02'0 0.0
2018-Feb-15 00:30N 49°09' W 123°02'0 0.0
2018-Feb-15 00:00N 49°09' W 123°02'0 0.0
2018-Feb-14 23:30N 49°09' W 123°02'0 0.0
2018-Feb-14 23:00N 49°09' W 123°02'0 0.0
2018-Feb-14 22:30N 49°09' W 123°02'0 0.0
2018-Feb-14 22:00N 49°09' W 123°02'0 0.0
2018-Feb-14 21:30N 49°09' W 123°02'0 0.0
2018-Feb-14 21:00N 49°09' W 123°02'0 0.0
2018-Feb-14 20:30N 49°09' W 123°02'0 0.0
2018-Feb-14 20:00N 49°09' W 123°02'0 0.0
2018-Feb-14 19:30N 49°09' W 123°02'0 0.0
2018-Feb-14 19:00N 49°09' W 123°02'0 0.0
2018-Feb-14 18:30N 49°09' W 123°02'0 0.0
2018-Feb-14 18:00N 49°09' W 123°02'0 0.0
2018-Feb-14 17:30N 49°09' W 123°02'0 0.0
2018-Feb-14 17:00N 49°09' W 123°02'0 0.9
2018-Feb-14 16:30N 49°08' W 123°03'5 9.1
2018-Feb-14 15:59N 49°07' W 123°09'4 9.0
2018-Feb-14 15:29N 49°07' W 123°16'4 8.6
2018-Feb-14 15:00N 49°03' W 123°19'510.4
2018-Feb-14 14:29N 48°58' W 123°18'610.9
2018-Feb-14 13:56N 48°52' W 123°18'4 9.1
2018-Feb-14 13:29N 48°48' W 123°20'611.7
2018-Feb-14 13:00N 48°43' W 123°24'2 2.9
2018-Feb-14 12:28N 48°41' W 123°24'0 0.0
2018-Feb-14 12:00N 48°41' W 123°24'0 0.0
2018-Feb-14 11:30N 48°41' W 123°24'0 0.0
2018-Feb-14 11:00N 48°41' W 123°24'3 5.2
2018-Feb-14 10:30N 48°43' W 123°21'612.1
2018-Feb-14 10:00N 48°49' W 123°21'6 9.8
2018-Feb-14 09:27N 48°54' W 123°18'512.0
2018-Feb-14 09:00N 48°59' W 123°19'612.1
2018-Feb-14 08:30N 49°05' W 123°20'711.8
2018-Feb-14 07:55N 49°07' W 123°09'511.7
2018-Feb-14 07:29N 49°09' W 123°02'0 0.0
2018-Feb-14 07:00N 49°09' W 123°02'0 0.0
2018-Feb-14 06:30N 49°09' W 123°02'0 0.2
2018-Feb-14 06:00N 49°09' W 123°02'0 0.0
2018-Feb-14 05:28N 49°09' W 123°02'0 0.0
2018-Feb-14 05:00N 49°09' W 123°02'0 0.0
2018-Feb-14 04:30N 49°09' W 123°02'0 0.0
2018-Feb-14 04:00N 49°09' W 123°02'0 0.0
2018-Feb-14 03:30N 49°09' W 123°02'0 0.0
2018-Feb-14 03:00N 49°09' W 123°02'0 0.0
2018-Feb-14 02:30N 49°09' W 123°02'0 0.0
2018-Feb-14 02:00N 49°09' W 123°02'0 0.0
2018-Feb-14 01:24N 49°09' W 123°02'0 0.0
2018-Feb-14 00:56N 49°09' W 123°02'0 0.0
2018-Feb-14 00:30N 49°09' W 123°02'0 0.0
2018-Feb-14 00:00N 49°09' W 123°02'0 0.0
2018-Feb-13 23:30N 49°09' W 123°02'0 0.0
2018-Feb-13 22:54N 49°09' W 123°02'0 0.0
2018-Feb-13 22:30N 49°09' W 123°02'0 0.0
2018-Feb-13 22:00N 49°09' W 123°02'0 0.0
2018-Feb-13 21:30N 49°09' W 123°02'0 0.0
2018-Feb-13 21:00N 49°09' W 123°02'0 0.0
2018-Feb-13 20:30N 49°09' W 123°02'0 0.0
2018-Feb-13 20:00N 49°09' W 123°02'0 0.0
2018-Feb-13 19:30N 49°09' W 123°02'0 0.0
2018-Feb-13 19:00N 49°09' W 123°02'0 0.0
2018-Feb-13 18:30N 49°09' W 123°02'0 0.0
2018-Feb-13 18:00N 49°09' W 123°02'0 0.0
2018-Feb-13 17:28N 49°09' W 123°02'0 0.0
2018-Feb-13 16:59N 49°09' W 123°02'0 0.0
2018-Feb-13 16:30N 49°09' W 123°02'0 0.0
2018-Feb-13 15:58N 49°09' W 123°02'0 0.0
2018-Feb-13 15:30N 49°09' W 123°02'0 0.0
2018-Feb-13 15:00N 49°09' W 123°02'0 0.0
2018-Feb-13 14:30N 49°09' W 123°02'0 0.0
2018-Feb-13 13:59N 49°09' W 123°02'0 0.0
2018-Feb-13 13:30N 49°09' W 123°02'0 0.0
2018-Feb-13 13:00N 49°09' W 123°02'0 0.0
2018-Feb-13 12:29N 49°09' W 123°02'0 0.0
2018-Feb-13 12:00N 49°09' W 123°02'0 0.0
2018-Feb-13 11:30N 49°09' W 123°02'0 0.0
2018-Feb-13 11:00N 49°09' W 123°02'0 0.0
2018-Feb-13 10:30N 49°09' W 123°02'0 0.0
2018-Feb-13 10:00N 49°09' W 123°02'0 0.0
2018-Feb-13 09:30N 49°09' W 123°02'0 0.0
2018-Feb-13 09:00N 49°09' W 123°02'0 0.0
2018-Feb-13 08:30N 49°09' W 123°02'0 0.0
2018-Feb-13 08:00N 49°09' W 123°02'0 0.0
2018-Feb-13 07:30N 49°09' W 123°02'0 0.0
2018-Feb-13 07:00N 49°09' W 123°02'0 0.0
2018-Feb-13 06:30N 49°09' W 123°02'0 0.0
2018-Feb-13 06:00N 49°09' W 123°02'0 0.0
2018-Feb-13 05:17N 49°09' W 123°02'0 0.0
2018-Feb-13 05:00N 49°09' W 123°02'0 0.0
2018-Feb-13 04:30N 49°09' W 123°02'0 0.0
2018-Feb-13 04:00N 49°09' W 123°02'0 0.0
2018-Feb-13 03:30N 49°09' W 123°02'0 0.0
2018-Feb-13 03:00N 49°09' W 123°02'0 0.0
2018-Feb-13 02:30N 49°09' W 123°02'0 0.0
2018-Feb-13 02:00N 49°09' W 123°02'0 0.0
2018-Feb-13 01:30N 49°09' W 123°02'0 0.0
2018-Feb-13 01:00N 49°09' W 123°02'0 0.0
2018-Feb-13 00:30N 49°09' W 123°02'0 0.0
2018-Feb-12 23:57N 49°09' W 123°02'0 0.0
2018-Feb-12 23:30N 49°09' W 123°02'0 0.0
2018-Feb-12 23:00N 49°09' W 123°02'0 0.0
2018-Feb-12 22:30N 49°09' W 123°02'0 0.0
2018-Feb-12 22:00N 49°09' W 123°02'0 0.0
2018-Feb-12 21:30N 49°09' W 123°02'0 0.0
2018-Feb-12 21:00N 49°09' W 123°02'0 0.0
2018-Feb-12 20:30N 49°09' W 123°02'0 0.0
2018-Feb-12 20:00N 49°09' W 123°02'0 0.0
2018-Feb-12 19:30N 49°09' W 123°02'0 0.0
2018-Feb-12 19:00N 49°09' W 123°02'0 0.0
2018-Feb-12 18:30N 49°09' W 123°02'0 0.0
2018-Feb-12 18:00N 49°09' W 123°02'0 0.0
2018-Feb-12 17:30N 49°09' W 123°02'0 0.0
2018-Feb-12 16:59N 49°09' W 123°02'0 0.0
2018-Feb-12 16:30N 49°09' W 123°02'0 0.0
2018-Feb-12 16:00N 49°09' W 123°02'0 0.0
2018-Feb-12 15:30N 49°09' W 123°02'0 0.0
2018-Feb-12 15:00N 49°09' W 123°02'0 0.0
2018-Feb-12 14:30N 49°09' W 123°02'0 0.0
2018-Feb-12 14:00N 49°09' W 123°02'0 0.0
2018-Feb-12 13:30N 49°09' W 123°02'0 0.0
2018-Feb-12 13:00N 49°09' W 123°02'0 0.0
2018-Feb-12 12:30N 49°09' W 123°02'0 0.0
2018-Feb-12 12:00N 49°09' W 123°02'0 0.0
2018-Feb-12 11:30N 49°09' W 123°02'0 0.0
2018-Feb-12 11:00N 49°09' W 123°02'0 0.0
2018-Feb-12 10:30N 49°09' W 123°02'0 0.0
2018-Feb-12 10:00N 49°09' W 123°02'0 0.0
2018-Feb-12 09:30N 49°09' W 123°02'0 0.0
2018-Feb-12 09:00N 49°09' W 123°02'0 0.0
2018-Feb-12 08:30N 49°09' W 123°02'0 0.0
2018-Feb-12 08:00N 49°09' W 123°02'0 0.0
2018-Feb-12 07:30N 49°09' W 123°02'0 0.0
2018-Feb-12 06:59N 49°09' W 123°02'0 0.0
2018-Feb-12 06:30N 49°09' W 123°02'0 0.0
2018-Feb-12 06:00N 49°09' W 123°02'0 0.0
2018-Feb-12 05:30N 49°09' W 123°02'0 0.0
2018-Feb-12 05:00N 49°09' W 123°02'0 0.0
2018-Feb-12 04:30N 49°09' W 123°02'0 0.0
2018-Feb-12 04:00N 49°09' W 123°02'0 0.0
2018-Feb-12 03:30N 49°09' W 123°02'0 0.0
2018-Feb-12 03:00N 49°09' W 123°02'0 0.0
2018-Feb-12 02:30N 49°09' W 123°02'0 0.0
2018-Feb-12 02:00N 49°09' W 123°02'0 0.0
2018-Feb-12 01:30N 49°09' W 123°02'0 0.0
2018-Feb-12 01:00N 49°09' W 123°02'0 0.0
2018-Feb-12 00:30N 49°09' W 123°02'0 0.0
2018-Feb-11 23:56N 49°09' W 123°02'0 0.0
2018-Feb-11 23:30N 49°09' W 123°02'0 0.0
2018-Feb-11 23:00N 49°09' W 123°02'  
Track history (hours):
 
Tides and Currents Weather Stations Pressure Air Temp Water Temp Dewpoint Dewpoint Depression Visibility Wind Speed Wind Dir Waves Ship Positions

Carrier Princess

Last reported at 2018-Feb-21 23:00 UTC. Time now 2018-Feb-21 23:29 UTC.
Position N 49°09' W 123°02'.

Length 112 m; draft 3 m.

Type: Cargo ship. MMSI: 316003656.

Date/timePositionNaut miles runAvg speedWind from/ knotsBaromVisibWave heightAir tempDewpointWater temp
2018-Feb-21 23:00N 49°09' W 123°02'0 0.0
2018-Feb-21 22:30N 49°09' W 123°02'0 0.0
2018-Feb-21 22:00N 49°09' W 123°02'0 0.0
2018-Feb-21 21:30N 49°09' W 123°02'0 0.0
2018-Feb-21 21:00N 49°09' W 123°02'0 0.0
2018-Feb-21 20:30N 49°09' W 123°02'0 0.0
2018-Feb-21 20:00N 49°09' W 123°02'0 0.0
2018-Feb-21 19:30N 49°09' W 123°02'0 0.0
2018-Feb-21 18:59N 49°09' W 123°02'0 0.0
2018-Feb-21 18:30N 49°09' W 123°02'0 0.0
2018-Feb-21 18:00N 49°09' W 123°02'0 0.1
2018-Feb-21 17:30N 49°09' W 123°02'0 0.1
2018-Feb-21 17:00N 49°09' W 123°02'1 1.2
2018-Feb-21 16:30N 49°08' W 123°03'510.0
2018-Feb-21 16:00N 49°07' W 123°10'4 8.1
2018-Feb-21 15:29N 49°07' W 123°17'4 7.7
2018-Feb-21 14:55N 49°03' W 123°19'4 9.3
2018-Feb-21 14:29N 48°59' W 123°19'5 9.4
2018-Feb-21 13:59N 48°54' W 123°18'5 9.7
2018-Feb-21 13:29N 48°50' W 123°20'613.6
2018-Feb-21 13:01N 48°44' W 123°24'2 4.5
2018-Feb-21 12:30N 48°41' W 123°24'0 0.0
2018-Feb-21 12:00N 48°41' W 123°24'0 0.0
2018-Feb-21 11:30N 48°41' W 123°24'0 0.0
2018-Feb-21 10:58N 48°41' W 123°24'2 4.4
2018-Feb-21 10:30N 48°42' W 123°22'510.8
2018-Feb-21 10:00N 48°48' W 123°21'4 8.1
2018-Feb-21 09:30N 48°51' W 123°19'510.2
2018-Feb-21 08:58N 48°57' W 123°18'510.6
2018-Feb-21 08:30N 49°02' W 123°19'611.0
2018-Feb-21 08:00N 49°07' W 123°16'611.7
2018-Feb-21 07:30N 49°07' W 123°07'4 7.9
2018-Feb-21 07:00N 49°09' W 123°02'0 0.0
2018-Feb-21 06:30N 49°09' W 123°02'0 0.2
2018-Feb-21 06:00N 49°09' W 123°02'0 0.0
2018-Feb-21 05:30N 49°09' W 123°02'0 0.0
2018-Feb-21 05:00N 49°09' W 123°02'0 0.0
2018-Feb-21 04:30N 49°09' W 123°02'0 0.0
2018-Feb-21 04:00N 49°09' W 123°02'0 0.0
2018-Feb-21 03:30N 49°09' W 123°02'0 0.0
2018-Feb-21 03:00N 49°09' W 123°02'0 0.0
2018-Feb-21 02:30N 49°09' W 123°02'0 0.0
2018-Feb-21 01:59N 49°09' W 123°02'0 0.0
2018-Feb-21 01:30N 49°09' W 123°02'0 0.0
2018-Feb-21 01:00N 49°09' W 123°02'0 0.0
2018-Feb-21 00:30N 49°09' W 123°02'0 0.0
2018-Feb-21 00:00N 49°09' W 123°02'0 0.0
2018-Feb-20 23:29N 49°09' W 123°02'0 0.0
2018-Feb-20 23:00N 49°09' W 123°02'0 0.0
2018-Feb-20 22:30N 49°09' W 123°02'0 0.0
2018-Feb-20 22:00N 49°09' W 123°02'0 0.0
2018-Feb-20 21:30N 49°09' W 123°02'0 0.0
2018-Feb-20 21:00N 49°09' W 123°02'0 0.0
2018-Feb-20 20:29N 49°09' W 123°02'0 0.0
2018-Feb-20 20:00N 49°09' W 123°02'0 0.0
2018-Feb-20 19:30N 49°09' W 123°02'0 0.0
2018-Feb-20 19:00N 49°09' W 123°02'0 0.0
2018-Feb-20 18:30N 49°09' W 123°02'0 0.0
2018-Feb-20 18:00N 49°09' W 123°02'0 0.0
2018-Feb-20 17:30N 49°09' W 123°02'0 0.0
2018-Feb-20 17:00N 49°09' W 123°02'0 0.0
2018-Feb-20 16:30N 49°09' W 123°02'3 6.4
2018-Feb-20 15:59N 49°07' W 123°06'5 9.3
2018-Feb-20 15:30N 49°08' W 123°13'4 8.6
2018-Feb-20 15:00N 49°06' W 123°19'611.7
2018-Feb-20 14:30N 48°60' W 123°18'510.9
2018-Feb-20 14:00N 48°54' W 123°18'510.2
2018-Feb-20 13:30N 48°50' W 123°21'612.5
2018-Feb-20 13:00N 48°44' W 123°24'3 5.2
2018-Feb-20 12:30N 48°41' W 123°24'0 0.0
2018-Feb-20 12:00N 48°41' W 123°24'0 0.0
2018-Feb-20 11:30N 48°41' W 123°24'0 0.0
2018-Feb-20 11:00N 48°41' W 123°24'3 5.4
2018-Feb-20 10:30N 48°43' W 123°21'612.4
2018-Feb-20 10:00N 48°49' W 123°21'5 9.0
2018-Feb-20 09:26N 48°54' W 123°18'511.5
2018-Feb-20 09:00N 48°59' W 123°19'611.4
2018-Feb-20 08:29N 49°05' W 123°20'611.8
2018-Feb-20 07:59N 49°07' W 123°11'612.6
2018-Feb-20 07:30N 49°09' W 123°02'0 0.5
2018-Feb-20 07:00N 49°09' W 123°02'0 0.0
2018-Feb-20 06:30N 49°09' W 123°02'0 0.2
2018-Feb-20 06:00N 49°09' W 123°02'0 0.1
2018-Feb-20 05:29N 49°09' W 123°02'0 0.0
2018-Feb-20 05:00N 49°09' W 123°02'0 0.0
2018-Feb-20 04:30N 49°09' W 123°02'0 0.0
2018-Feb-20 04:00N 49°09' W 123°02'0 0.0
2018-Feb-20 03:30N 49°09' W 123°02'0 0.0
2018-Feb-20 03:00N 49°09' W 123°02'0 0.0
2018-Feb-20 02:30N 49°09' W 123°02'0 0.0
2018-Feb-20 02:00N 49°09' W 123°02'0 0.0
2018-Feb-20 01:30N 49°09' W 123°02'0 0.0
2018-Feb-20 01:00N 49°09' W 123°02'0 0.0
2018-Feb-20 00:30N 49°09' W 123°02'0 0.0
2018-Feb-19 23:59N 49°09' W 123°02'0 0.0
2018-Feb-19 23:30N 49°09' W 123°02'0 0.0
2018-Feb-19 23:00N 49°09' W 123°02'0 0.0
2018-Feb-19 22:30N 49°09' W 123°02'0 0.0
2018-Feb-19 22:00N 49°09' W 123°02'0 0.0
2018-Feb-19 21:30N 49°09' W 123°02'0 0.0
2018-Feb-19 21:00N 49°09' W 123°02'0 0.0
2018-Feb-19 20:30N 49°09' W 123°02'0 0.0
2018-Feb-19 20:00N 49°09' W 123°02'0 0.0
2018-Feb-19 19:30N 49°09' W 123°02'0 0.0
2018-Feb-19 19:00N 49°09' W 123°02'0 0.0
2018-Feb-19 18:30N 49°09' W 123°02'0 0.0
2018-Feb-19 18:00N 49°09' W 123°02'0 0.0
2018-Feb-19 17:30N 49°09' W 123°02'0 0.0
2018-Feb-19 17:00N 49°09' W 123°02'0 0.0
2018-Feb-19 16:30N 49°09' W 123°02'0 0.0
2018-Feb-19 16:00N 49°09' W 123°02'0 0.0
2018-Feb-19 15:30N 49°09' W 123°02'0 0.0
2018-Feb-19 15:00N 49°09' W 123°02'0 0.0
2018-Feb-19 14:30N 49°09' W 123°02'0 0.0
2018-Feb-19 14:00N 49°09' W 123°02'0 0.0
2018-Feb-19 13:30N 49°09' W 123°02'0 0.0
2018-Feb-19 13:00N 49°09' W 123°02'0 0.0
2018-Feb-19 12:30N 49°09' W 123°02'0 0.0
2018-Feb-19 12:00N 49°09' W 123°02'0 0.0
2018-Feb-19 11:26N 49°09' W 123°02'0 0.0
2018-Feb-19 11:00N 49°09' W 123°02'0 0.0
2018-Feb-19 10:30N 49°09' W 123°02'0 0.0
2018-Feb-19 10:00N 49°09' W 123°02'0 0.0
2018-Feb-19 09:30N 49°09' W 123°02'0 0.0
2018-Feb-19 09:00N 49°09' W 123°02'0 0.0
2018-Feb-19 08:30N 49°09' W 123°02'0 0.0
2018-Feb-19 08:00N 49°09' W 123°02'0 0.0
2018-Feb-19 07:30N 49°09' W 123°02'0 0.0
2018-Feb-19 07:00N 49°09' W 123°02'0 0.0
2018-Feb-19 06:29N 49°09' W 123°02'0 0.0
2018-Feb-19 06:00N 49°09' W 123°02'0 0.0
2018-Feb-19 05:30N 49°09' W 123°02'0 0.0
2018-Feb-19 05:00N 49°09' W 123°02'0 0.0
2018-Feb-19 04:30N 49°09' W 123°02'0 0.0
2018-Feb-19 04:00N 49°09' W 123°02'0 0.0
2018-Feb-19 03:30N 49°09' W 123°02'0 0.0
2018-Feb-19 03:00N 49°09' W 123°02'0 0.0
2018-Feb-19 02:30N 49°09' W 123°02'0 0.0
2018-Feb-19 02:00N 49°09' W 123°02'0 0.0
2018-Feb-19 01:30N 49°09' W 123°02'0 0.0
2018-Feb-19 01:00N 49°09' W 123°02'0 0.0
2018-Feb-19 00:30N 49°09' W 123°02'0 0.0
2018-Feb-19 00:00N 49°09' W 123°02'0 0.0
2018-Feb-18 23:30N 49°09' W 123°02'0 0.0
2018-Feb-18 23:00N 49°09' W 123°02'0 0.0
2018-Feb-18 22:30N 49°09' W 123°02'0 0.0
2018-Feb-18 22:00N 49°09' W 123°02'0 0.0
2018-Feb-18 21:30N 49°09' W 123°02'0 0.0
2018-Feb-18 21:00N 49°09' W 123°02'0 0.0
2018-Feb-18 20:30N 49°09' W 123°02'0 0.0
2018-Feb-18 20:00N 49°09' W 123°02'0 0.0
2018-Feb-18 19:30N 49°09' W 123°02'0 0.0
2018-Feb-18 19:00N 49°09' W 123°02'0 0.0
2018-Feb-18 18:30N 49°09' W 123°02'0 0.0
2018-Feb-18 18:00N 49°09' W 123°02'0 0.0
2018-Feb-18 17:30N 49°09' W 123°02'0 0.0
2018-Feb-18 17:00N 49°09' W 123°02'0 0.0
2018-Feb-18 16:30N 49°09' W 123°02'0 0.0
2018-Feb-18 16:00N 49°09' W 123°02'0 0.0
2018-Feb-18 15:29N 49°09' W 123°02'0 0.0
2018-Feb-18 15:00N 49°09' W 123°02'0 0.0
2018-Feb-18 14:30N 49°09' W 123°02'0 0.0
2018-Feb-18 14:00N 49°09' W 123°02'0 0.0
2018-Feb-18 13:30N 49°09' W 123°02'0 0.0
2018-Feb-18 13:00N 49°09' W 123°02'0 0.0
2018-Feb-18 12:30N 49°09' W 123°02'0 0.0
2018-Feb-18 12:00N 49°09' W 123°02'0 0.0
2018-Feb-18 11:30N 49°09' W 123°02'0 0.0
2018-Feb-18 11:00N 49°09' W 123°02'0 0.0
2018-Feb-18 10:30N 49°09' W 123°02'0 0.0
2018-Feb-18 10:00N 49°09' W 123°02'0 0.0
2018-Feb-18 09:30N 49°09' W 123°02'0 0.0
2018-Feb-18 09:00N 49°09' W 123°02'0 0.0
2018-Feb-18 08:30N 49°09' W 123°02'0 0.0
2018-Feb-18 07:59N 49°09' W 123°02'0 0.0
2018-Feb-18 07:30N 49°09' W 123°02'0 0.0
2018-Feb-18 07:00N 49°09' W 123°02'0 0.0
2018-Feb-18 06:30N 49°09' W 123°02'0 0.0
2018-Feb-18 06:00N 49°09' W 123°02'0 0.0
2018-Feb-18 05:30N 49°09' W 123°02'0 0.0
2018-Feb-18 05:00N 49°09' W 123°02'0 0.0
2018-Feb-18 04:30N 49°09' W 123°02'0 0.0
2018-Feb-18 04:00N 49°09' W 123°02'0 0.0
2018-Feb-18 03:30N 49°09' W 123°02'0 0.0
2018-Feb-18 03:00N 49°09' W 123°02'0 0.0
2018-Feb-18 02:30N 49°09' W 123°02'0 0.0
2018-Feb-18 02:00N 49°09' W 123°02'0 0.0
2018-Feb-18 01:30N 49°09' W 123°02'0 0.0
2018-Feb-18 01:00N 49°09' W 123°02'0 0.0
2018-Feb-18 00:30N 49°09' W 123°02'0 0.0
2018-Feb-18 00:00N 49°09' W 123°02'0 0.0
2018-Feb-17 23:30N 49°09' W 123°02'0 0.0
2018-Feb-17 23:00N 49°09' W 123°02'0 0.0
2018-Feb-17 22:30N 49°09' W 123°02'0 0.0
2018-Feb-17 22:00N 49°09' W 123°02'0 0.0
2018-Feb-17 21:30N 49°09' W 123°02'0 0.0
2018-Feb-17 21:00N 49°09' W 123°02'0 0.0
2018-Feb-17 20:30N 49°09' W 123°02'0 0.0
2018-Feb-17 20:00N 49°09' W 123°02'0 0.0
2018-Feb-17 19:30N 49°09' W 123°02'0 0.0
2018-Feb-17 19:00N 49°09' W 123°02'0 0.0
2018-Feb-17 18:30N 49°09' W 123°02'0 0.0
2018-Feb-17 18:00N 49°09' W 123°02'0 0.0
2018-Feb-17 17:30N 49°09' W 123°02'0 0.2
2018-Feb-17 17:00N 49°09' W 123°02'2 3.3
2018-Feb-17 16:30N 49°08' W 123°04'4 8.5
2018-Feb-17 15:59N 49°07' W 123°10'4 8.0
2018-Feb-17 15:28N 49°07' W 123°17'4 7.9
2018-Feb-17 15:00N 49°04' W 123°20'5 9.3
2018-Feb-17 14:30N 48°59' W 123°19'6 9.8
2018-Feb-17 13:54N 48°53' W 123°18'3 9.1
2018-Feb-17 13:30N 48°50' W 123°21'713.6
2018-Feb-17 13:00N 48°43' W 123°24'2 4.5
2018-Feb-17 12:31N 48°41' W 123°24'0 0.0
2018-Feb-17 12:01N 48°41' W 123°24'0 0.1
2018-Feb-17 11:30N 48°41' W 123°24'0 0.1
2018-Feb-17 11:01N 48°41' W 123°24'2 4.3
2018-Feb-17 10:31N 48°42' W 123°22'5 9.7
2018-Feb-17 10:01N 48°47' W 123°21'5 8.8
2018-Feb-17 09:27N 48°52' W 123°19'510.8
2018-Feb-17 09:00N 48°57' W 123°18'5 9.9
2018-Feb-17 08:30N 49°02' W 123°19'510.4
2018-Feb-17 08:00N 49°07' W 123°17'814.9
2018-Feb-17 07:28N 49°07' W 123°05'2 5.0
2018-Feb-17 07:00N 49°09' W 123°02'0 0.0
2018-Feb-17 06:30N 49°09' W 123°02'0 0.0
2018-Feb-17 06:00N 49°09' W 123°02'0 0.0
2018-Feb-17 05:30N 49°09' W 123°02'0 0.0
2018-Feb-17 05:00N 49°09' W 123°02'0 0.0
2018-Feb-17 04:30N 49°09' W 123°02'3 6.2
2018-Feb-17 04:00N 49°07' W 123°06'611.6
2018-Feb-17 03:29N 49°08' W 123°15'511.2
2018-Feb-17 03:00N 49°03' W 123°20'712.9
2018-Feb-17 02:30N 48°57' W 123°18'510.0
2018-Feb-17 02:00N 48°52' W 123°20'611.4
2018-Feb-17 01:30N 48°46' W 123°22'510.3
2018-Feb-17 01:00N 48°41' W 123°24'0 0.0
2018-Feb-17 00:30N 48°41' W 123°24'0 0.0
2018-Feb-17 00:00N 48°41' W 123°24'0 0.0
2018-Feb-16 23:30N 48°41' W 123°24'0 0.0
2018-Feb-16 23:00N 48°41' W 123°24'0 0.0
2018-Feb-16 22:30N 48°41' W 123°24'2 4.5
2018-Feb-16 22:00N 48°42' W 123°21'611.6
2018-Feb-16 21:30N 48°48' W 123°21'610.8
2018-Feb-16 20:57N 48°54' W 123°18'511.3
2018-Feb-16 20:30N 48°59' W 123°18'612.1
2018-Feb-16 20:00N 49°05' W 123°19'611.8
2018-Feb-16 19:30N 49°07' W 123°11'611.7
2018-Feb-16 19:00N 49°09' W 123°02'0 0.1
2018-Feb-16 18:30N 49°09' W 123°02'0 0.0
2018-Feb-16 18:00N 49°09' W 123°02'0 0.0
2018-Feb-16 17:30N 49°09' W 123°02'0 0.0
2018-Feb-16 17:00N 49°09' W 123°02'1 2.5
2018-Feb-16 16:30N 49°08' W 123°04'4 8.4
2018-Feb-16 16:00N 49°07' W 123°10'4 8.0
2018-Feb-16 15:28N 49°07' W 123°16'4 8.5
2018-Feb-16 15:00N 49°03' W 123°19'5 9.6
2018-Feb-16 14:29N 48°58' W 123°17'5 9.3
2018-Feb-16 13:55N 48°53' W 123°18'4 8.8
2018-Feb-16 13:29N 48°50' W 123°21'714.1
2018-Feb-16 13:00N 48°43' W 123°24'2 4.2
2018-Feb-16 12:30N 48°41' W 123°24'0 0.0
2018-Feb-16 11:57N 48°41' W 123°24'0 0.0
2018-Feb-16 11:30N 48°41' W 123°24'0 0.0
2018-Feb-16 11:00N 48°41' W 123°24'3 6.6
2018-Feb-16 10:30N 48°44' W 123°21'713.1
2018-Feb-16 09:57N 48°51' W 123°21'610.3
2018-Feb-16 09:24N 48°56' W 123°18'514.0
2018-Feb-16 09:00N 49°02' W 123°19'611.6
2018-Feb-16 08:30N 49°07' W 123°16'714.2
2018-Feb-16 07:59N 49°07' W 123°05'2 4.7
2018-Feb-16 07:30N 49°09' W 123°02'0 0.0
2018-Feb-16 07:00N 49°09' W 123°02'0 0.0
2018-Feb-16 06:30N 49°09' W 123°02'0 0.2
2018-Feb-16 06:00N 49°09' W 123°02'0 0.0
2018-Feb-16 05:30N 49°09' W 123°02'0 0.0
2018-Feb-16 05:00N 49°09' W 123°02'0 0.0
2018-Feb-16 04:30N 49°09' W 123°02'0 0.0
2018-Feb-16 04:00N 49°09' W 123°02'0 0.0
2018-Feb-16 03:30N 49°09' W 123°02'0 0.0
2018-Feb-16 03:00N 49°09' W 123°02'0 0.0
2018-Feb-16 02:30N 49°09' W 123°02'0 0.0
2018-Feb-16 02:00N 49°09' W 123°02'0 0.0
2018-Feb-16 01:30N 49°09' W 123°02'0 0.0
2018-Feb-16 01:00N 49°09' W 123°02'0 0.0
2018-Feb-16 00:30N 49°09' W 123°02'0 0.0
2018-Feb-16 00:00N 49°09' W 123°02'0 0.0
2018-Feb-15 23:30N 49°09' W 123°02'0 0.0
2018-Feb-15 23:00N 49°09' W 123°02'0 0.0
2018-Feb-15 22:30N 49°09' W 123°02'0 0.0
2018-Feb-15 22:00N 49°09' W 123°02'0 0.0
2018-Feb-15 21:30N 49°09' W 123°02'0 0.0
2018-Feb-15 21:00N 49°09' W 123°02'0 0.0
2018-Feb-15 20:30N 49°09' W 123°02'0 0.0
2018-Feb-15 20:00N 49°09' W 123°02'0 0.0
2018-Feb-15 19:30N 49°09' W 123°02'0 0.0
2018-Feb-15 19:00N 49°09' W 123°02'0 0.0
2018-Feb-15 18:30N 49°09' W 123°02'0 0.0
2018-Feb-15 18:00N 49°09' W 123°02'0 0.0
2018-Feb-15 17:30N 49°09' W 123°02'0 0.0
2018-Feb-15 17:00N 49°09' W 123°02'0 0.6
2018-Feb-15 16:30N 49°09' W 123°03'4 8.6
2018-Feb-15 16:00N 49°06' W 123°08'5 9.2
2018-Feb-15 15:30N 49°07' W 123°15'510.5
2018-Feb-15 15:00N 49°03' W 123°19'5 9.8
2018-Feb-15 14:30N 48°58' W 123°19'5 9.9
2018-Feb-15 13:58N 48°53' W 123°18'4 8.6
2018-Feb-15 13:30N 48°49' W 123°20'612.4
2018-Feb-15 13:00N 48°43' W 123°24'2 4.1
2018-Feb-15 12:30N 48°41' W 123°24'0 0.0
2018-Feb-15 12:00N 48°41' W 123°24'0 0.0
2018-Feb-15 11:30N 48°41' W 123°24'0 0.0
2018-Feb-15 11:00N 48°41' W 123°24'3 5.3
2018-Feb-15 10:30N 48°43' W 123°21'612.5
2018-Feb-15 10:00N 48°49' W 123°21'5 9.1
2018-Feb-15 09:30N 48°53' W 123°18'5 9.6
2018-Feb-15 09:00N 48°58' W 123°18'612.1
2018-Feb-15 08:30N 49°04' W 123°19'611.4
2018-Feb-15 07:59N 49°07' W 123°11'510.4
2018-Feb-15 07:29N 49°08' W 123°04'1 2.5
2018-Feb-15 07:00N 49°09' W 123°02'0 0.0
2018-Feb-15 06:30N 49°09' W 123°02'0 0.2
2018-Feb-15 06:00N 49°09' W 123°02'0 0.0
2018-Feb-15 05:30N 49°09' W 123°02'0 0.0
2018-Feb-15 05:00N 49°09' W 123°02'0 0.0
2018-Feb-15 04:30N 49°09' W 123°02'0 0.0
2018-Feb-15 04:00N 49°09' W 123°02'0 0.0
2018-Feb-15 03:30N 49°09' W 123°02'0 0.0
2018-Feb-15 03:00N 49°09' W 123°02'0 0.0
2018-Feb-15 02:30N 49°09' W 123°02'0 0.0
2018-Feb-15 02:00N 49°09' W 123°02'0 0.0
2018-Feb-15 01:30N 49°09' W 123°02'0 0.0
2018-Feb-15 01:00N 49°09' W 123°02'0 0.0
2018-Feb-15 00:30N 49°09' W 123°02'0 0.0
2018-Feb-15 00:00N 49°09' W 123°02'0 0.0
2018-Feb-14 23:30N 49°09' W 123°02'0 0.0
2018-Feb-14 23:00N 49°09' W 123°02'0 0.0
2018-Feb-14 22:30N 49°09' W 123°02'0 0.0
2018-Feb-14 22:00N 49°09' W 123°02'0 0.0
2018-Feb-14 21:30N 49°09' W 123°02'0 0.0
2018-Feb-14 21:00N 49°09' W 123°02'0 0.0
2018-Feb-14 20:30N 49°09' W 123°02'0 0.0
2018-Feb-14 20:00N 49°09' W 123°02'0 0.0
2018-Feb-14 19:30N 49°09' W 123°02'0 0.0
2018-Feb-14 19:00N 49°09' W 123°02'0 0.0
2018-Feb-14 18:30N 49°09' W 123°02'0 0.0
2018-Feb-14 18:00N 49°09' W 123°02'0 0.0
2018-Feb-14 17:30N 49°09' W 123°02'0 0.0
2018-Feb-14 17:00N 49°09' W 123°02'0 0.9
2018-Feb-14 16:30N 49°08' W 123°03'5 9.1
2018-Feb-14 15:59N 49°07' W 123°09'4 9.0
2018-Feb-14 15:29N 49°07' W 123°16'4 8.6
2018-Feb-14 15:00N 49°03' W 123°19'510.4
2018-Feb-14 14:29N 48°58' W 123°18'610.9
2018-Feb-14 13:56N 48°52' W 123°18'4 9.1
2018-Feb-14 13:29N 48°48' W 123°20'611.7
2018-Feb-14 13:00N 48°43' W 123°24'2 2.9
2018-Feb-14 12:28N 48°41' W 123°24'0 0.0
2018-Feb-14 12:00N 48°41' W 123°24'0 0.0
2018-Feb-14 11:30N 48°41' W 123°24'0 0.0
2018-Feb-14 11:00N 48°41' W 123°24'3 5.2
2018-Feb-14 10:30N 48°43' W 123°21'612.1
2018-Feb-14 10:00N 48°49' W 123°21'6 9.8
2018-Feb-14 09:27N 48°54' W 123°18'512.0
2018-Feb-14 09:00N 48°59' W 123°19'612.1
2018-Feb-14 08:30N 49°05' W 123°20'711.8
2018-Feb-14 07:55N 49°07' W 123°09'511.7
2018-Feb-14 07:29N 49°09' W 123°02'0 0.0
2018-Feb-14 07:00N 49°09' W 123°02'0 0.0
2018-Feb-14 06:30N 49°09' W 123°02'0 0.2
2018-Feb-14 06:00N 49°09' W 123°02'0 0.0
2018-Feb-14 05:28N 49°09' W 123°02'0 0.0
2018-Feb-14 05:00N 49°09' W 123°02'0 0.0
2018-Feb-14 04:30N 49°09' W 123°02'0 0.0
2018-Feb-14 04:00N 49°09' W 123°02'0 0.0
2018-Feb-14 03:30N 49°09' W 123°02'0 0.0
2018-Feb-14 03:00N 49°09' W 123°02'0 0.0
2018-Feb-14 02:30N 49°09' W 123°02'0 0.0
2018-Feb-14 02:00N 49°09' W 123°02'0 0.0
2018-Feb-14 01:24N 49°09' W 123°02'0 0.0
2018-Feb-14 00:56N 49°09' W 123°02'0 0.0
2018-Feb-14 00:30N 49°09' W 123°02'0 0.0
2018-Feb-14 00:00N 49°09' W 123°02'0 0.0
2018-Feb-13 23:30N 49°09' W 123°02'0 0.0
2018-Feb-13 22:54N 49°09' W 123°02'0 0.0
2018-Feb-13 22:30N 49°09' W 123°02'0 0.0
2018-Feb-13 22:00N 49°09' W 123°02'0 0.0
2018-Feb-13 21:30N 49°09' W 123°02'0 0.0
2018-Feb-13 21:00N 49°09' W 123°02'0 0.0
2018-Feb-13 20:30N 49°09' W 123°02'0 0.0
2018-Feb-13 20:00N 49°09' W 123°02'0 0.0
2018-Feb-13 19:30N 49°09' W 123°02'0 0.0
2018-Feb-13 19:00N 49°09' W 123°02'0 0.0
2018-Feb-13 18:30N 49°09' W 123°02'0 0.0
2018-Feb-13 18:00N 49°09' W 123°02'0 0.0
2018-Feb-13 17:28N 49°09' W 123°02'0 0.0
2018-Feb-13 16:59N 49°09' W 123°02'0 0.0
2018-Feb-13 16:30N 49°09' W 123°02'0 0.0
2018-Feb-13 15:58N 49°09' W 123°02'0 0.0
2018-Feb-13 15:30N 49°09' W 123°02'0 0.0
2018-Feb-13 15:00N 49°09' W 123°02'0 0.0
2018-Feb-13 14:30N 49°09' W 123°02'0 0.0
2018-Feb-13 13:59N 49°09' W 123°02'0 0.0
2018-Feb-13 13:30N 49°09' W 123°02'0 0.0
2018-Feb-13 13:00N 49°09' W 123°02'0 0.0
2018-Feb-13 12:29N 49°09' W 123°02'0 0.0
2018-Feb-13 12:00N 49°09' W 123°02'0 0.0
2018-Feb-13 11:30N 49°09' W 123°02'0 0.0
2018-Feb-13 11:00N 49°09' W 123°02'0 0.0
2018-Feb-13 10:30N 49°09' W 123°02'0 0.0
2018-Feb-13 10:00N 49°09' W 123°02'0 0.0
2018-Feb-13 09:30N 49°09' W 123°02'0 0.0
2018-Feb-13 09:00N 49°09' W 123°02'0 0.0
2018-Feb-13 08:30N 49°09' W 123°02'0 0.0
2018-Feb-13 08:00N 49°09' W 123°02'0 0.0
2018-Feb-13 07:30N 49°09' W 123°02'0 0.0
2018-Feb-13 07:00N 49°09' W 123°02'0 0.0
2018-Feb-13 06:30N 49°09' W 123°02'0 0.0
2018-Feb-13 06:00N 49°09' W 123°02'0 0.0
2018-Feb-13 05:17N 49°09' W 123°02'0 0.0
2018-Feb-13 05:00N 49°09' W 123°02'0 0.0
2018-Feb-13 04:30N 49°09' W 123°02'0 0.0
2018-Feb-13 04:00N 49°09' W 123°02'0 0.0
2018-Feb-13 03:30N 49°09' W 123°02'0 0.0
2018-Feb-13 03:00N 49°09' W 123°02'0 0.0
2018-Feb-13 02:30N 49°09' W 123°02'0 0.0
2018-Feb-13 02:00N 49°09' W 123°02'0 0.0
2018-Feb-13 01:30N 49°09' W 123°02'0 0.0
2018-Feb-13 01:00N 49°09' W 123°02'0 0.0
2018-Feb-13 00:30N 49°09' W 123°02'0 0.0
2018-Feb-12 23:57N 49°09' W 123°02'0 0.0
2018-Feb-12 23:30N 49°09' W 123°02'0 0.0
2018-Feb-12 23:00N 49°09' W 123°02'0 0.0
2018-Feb-12 22:30N 49°09' W 123°02'0 0.0
2018-Feb-12 22:00N 49°09' W 123°02'0 0.0
2018-Feb-12 21:30N 49°09' W 123°02'0 0.0
2018-Feb-12 21:00N 49°09' W 123°02'0 0.0
2018-Feb-12 20:30N 49°09' W 123°02'0 0.0
2018-Feb-12 20:00N 49°09' W 123°02'0 0.0
2018-Feb-12 19:30N 49°09' W 123°02'0 0.0
2018-Feb-12 19:00N 49°09' W 123°02'0 0.0
2018-Feb-12 18:30N 49°09' W 123°02'0 0.0
2018-Feb-12 18:00N 49°09' W 123°02'0 0.0
2018-Feb-12 17:30N 49°09' W 123°02'0 0.0
2018-Feb-12 16:59N 49°09' W 123°02'0 0.0
2018-Feb-12 16:30N 49°09' W 123°02'0 0.0
2018-Feb-12 16:00N 49°09' W 123°02'0 0.0
2018-Feb-12 15:30N 49°09' W 123°02'0 0.0
2018-Feb-12 15:00N 49°09' W 123°02'0 0.0
2018-Feb-12 14:30N 49°09' W 123°02'0 0.0
2018-Feb-12 14:00N 49°09' W 123°02'0 0.0
2018-Feb-12 13:30N 49°09' W 123°02'0 0.0
2018-Feb-12 13:00N 49°09' W 123°02'0 0.0
2018-Feb-12 12:30N 49°09' W 123°02'0 0.0
2018-Feb-12 12:00N 49°09' W 123°02'0 0.0
2018-Feb-12 11:30N 49°09' W 123°02'0 0.0
2018-Feb-12 11:00N 49°09' W 123°02'0 0.0
2018-Feb-12 10:30N 49°09' W 123°02'0 0.0
2018-Feb-12 10:00N 49°09' W 123°02'0 0.0
2018-Feb-12 09:30N 49°09' W 123°02'0 0.0
2018-Feb-12 09:00N 49°09' W 123°02'0 0.0
2018-Feb-12 08:30N 49°09' W 123°02'0 0.0
2018-Feb-12 08:00N 49°09' W 123°02'0 0.0
2018-Feb-12 07:30N 49°09' W 123°02'0 0.0
2018-Feb-12 06:59N 49°09' W 123°02'0 0.0
2018-Feb-12 06:30N 49°09' W 123°02'0 0.0
2018-Feb-12 06:00N 49°09' W 123°02'0 0.0
2018-Feb-12 05:30N 49°09' W 123°02'0 0.0
2018-Feb-12 05:00N 49°09' W 123°02'0 0.0
2018-Feb-12 04:30N 49°09' W 123°02'0 0.0
2018-Feb-12 04:00N 49°09' W 123°02'0 0.0
2018-Feb-12 03:30N 49°09' W 123°02'0 0.0
2018-Feb-12 03:00N 49°09' W 123°02'0 0.0
2018-Feb-12 02:30N 49°09' W 123°02'0 0.0
2018-Feb-12 02:00N 49°09' W 123°02'0 0.0
2018-Feb-12 01:30N 49°09' W 123°02'0 0.0
2018-Feb-12 01:00N 49°09' W 123°02'0 0.0
2018-Feb-12 00:30N 49°09' W 123°02'0 0.0
2018-Feb-11 23:56N 49°09' W 123°02'0 0.0
2018-Feb-11 23:30N 49°09' W 123°02'0 0.0
2018-Feb-11 23:00N 49°09' W 123°02'  

Dump ship's entire track history